Time;durP1;ratioP1;P1;durP2;ratioP2;P2;SDS_P1;SDS_P2;PMS_P1;PMS_P2;Temp;Humidity;BMP_temperature;BMP_pressure;BME280_temperature;BME280_humidity;BME280_pressure;Samples;Min_cycle;Max_cycle;Signal;HPM_P1;HPM_P2
2023/05/28 00:00:36;;;;;;;17.48;6.15;;;;;;;12.89;100.00;101616.94;5006863;28;20082;-73
2023/05/28 00:03:02;;;;;;;16.05;5.20;;;;;;;12.88;100.00;101610.56;5008596;28;20120;-74
2023/05/28 00:05:29;;;;;;;18.48;5.50;;;;;;;12.82;100.00;101605.84;5007087;28;20520;-74
2023/05/28 00:08:00;;;;;;;16.58;6.15;;;;;;;12.76;100.00;101604.69;5023012;28;20053;-75
2023/05/28 00:10:27;;;;;;;19.73;6.20;;;;;;;12.72;100.00;101606.72;5027853;28;20050;-74
2023/05/28 00:12:53;;;;;;;15.13;5.72;;;;;;;12.67;100.00;101612.72;5003327;28;20125;-74
2023/05/28 00:15:20;;;;;;;16.95;5.35;;;;;;;12.63;100.00;101609.97;5016161;28;20049;-73
2023/05/28 00:17:47;;;;;;;15.05;5.40;;;;;;;12.57;100.00;101602.44;5021585;28;20073;-74
2023/05/28 00:20:14;;;;;;;20.02;5.80;;;;;;;12.53;100.00;101605.28;5022726;28;20053;-73
2023/05/28 00:22:41;;;;;;;14.25;5.28;;;;;;;12.52;100.00;101600.88;5015622;28;20108;-73
2023/05/28 00:25:08;;;;;;;15.57;5.20;;;;;;;12.47;100.00;101606.91;5009401;28;20153;-74
2023/05/28 00:27:35;;;;;;;18.40;5.72;;;;;;;12.43;100.00;101600.56;5033292;28;20054;-72
2023/05/28 00:30:01;;;;;;;17.25;6.22;;;;;;;12.36;100.00;101606.97;5018678;28;20104;-73
2023/05/28 00:32:28;;;;;;;19.40;6.72;;;;;;;12.30;100.00;101597.41;5019436;28;20147;-73
2023/05/28 00:34:55;;;;;;;20.58;6.40;;;;;;;12.30;100.00;101596.63;5011423;28;20045;-74
2023/05/28 00:37:22;;;;;;;17.20;5.68;;;;;;;12.27;100.00;101592.66;5011987;28;20050;-74
2023/05/28 00:39:51;;;;;;;20.48;6.25;;;;;;;12.24;100.00;101592.69;5009594;28;20084;-74
2023/05/28 00:42:18;;;;;;;15.48;5.45;;;;;;;12.22;100.00;101592.28;5018630;28;20046;-73
2023/05/28 00:44:45;;;;;;;15.63;5.72;;;;;;;12.15;100.00;101595.91;5008275;28;20050;-74
2023/05/28 00:47:12;;;;;;;15.02;4.78;;;;;;;12.12;100.00;101599.50;5010526;28;20074;-73
2023/05/28 00:49:39;;;;;;;16.38;5.50;;;;;;;12.08;100.00;101593.19;5017831;28;20061;-75
2023/05/28 00:52:08;;;;;;;18.20;5.68;;;;;;;12.04;100.00;101597.97;5016147;28;20268;-73
2023/05/28 00:54:35;;;;;;;16.70;5.35;;;;;;;11.99;100.00;101598.38;5015814;28;20467;-74
2023/05/28 00:57:02;;;;;;;17.00;5.90;;;;;;;11.89;100.00;101588.09;5013329;28;20487;-74
2023/05/28 00:59:29;;;;;;;17.58;6.53;;;;;;;11.89;100.00;101596.44;5010746;28;20089;-74
2023/05/28 01:01:57;;;;;;;17.90;5.82;;;;;;;11.86;100.00;101594.50;5026530;28;20049;-74
2023/05/28 01:04:24;;;;;;;15.25;5.78;;;;;;;11.84;100.00;101599.66;5029088;28;20052;-75
2023/05/28 01:06:50;;;;;;;16.92;5.13;;;;;;;11.80;100.00;101598.09;5021799;28;20577;-76
2023/05/28 01:09:17;;;;;;;14.95;6.15;;;;;;;11.74;100.00;101603.28;5015691;28;20054;-75
2023/05/28 01:11:49;;;;;;;19.55;5.85;;;;;;;11.67;100.00;101597.75;5015970;28;20128;-74
2023/05/28 01:14:16;;;;;;;17.35;6.50;;;;;;;11.66;100.00;101598.16;5020355;28;20419;-74
2023/05/28 01:16:44;;;;;;;15.32;5.00;;;;;;;11.58;100.00;101597.38;5018375;28;20062;-74
2023/05/28 01:19:16;;;;;;;15.55;5.82;;;;;;;11.56;100.00;101598.97;5020363;28;20049;-75
2023/05/28 01:21:45;;;;;;;18.05;6.05;;;;;;;11.51;100.00;101594.63;5016428;28;20057;-75
2023/05/28 01:24:15;;;;;;;16.83;5.38;;;;;;;11.44;100.00;101594.66;5016051;28;20495;-75
2023/05/28 01:26:43;;;;;;;17.02;5.65;;;;;;;11.40;100.00;101593.88;5013606;28;20057;-75
2023/05/28 01:29:18;;;;;;;15.02;5.72;;;;;;;11.37;100.00;101586.31;5011727;28;20054;-75
2023/05/28 01:31:45;;;;;;;18.15;6.78;;;;;;;11.36;100.00;101587.53;5023872;28;20052;-73
2023/05/28 01:34:13;;;;;;;16.15;6.20;;;;;;;11.33;100.00;101588.31;5021515;28;20490;-73
2023/05/28 01:37:01;;;;;;;14.65;4.93;;;;;;;11.30;100.00;101582.75;5013877;28;20112;-74
2023/05/28 01:39:33;;;;;;;17.15;5.72;;;;;;;11.27;100.00;101581.56;5018508;28;20049;-75
2023/05/28 01:42:02;;;;;;;15.90;5.32;;;;;;;11.26;100.00;101581.97;5030013;28;20424;-71
2023/05/28 01:44:30;;;;;;;13.65;5.22;;;;;;;11.19;100.00;101577.19;5012873;28;20056;-75
2023/05/28 01:46:57;;;;;;;18.65;5.40;;;;;;;11.17;100.00;101585.13;5008677;28;20068;-74
2023/05/28 01:49:24;;;;;;;20.27;6.22;;;;;;;11.15;100.00;101578.38;5020246;28;20085;-74
2023/05/28 01:51:51;;;;;;;17.30;5.65;;;;;;;11.08;100.00;101584.78;5022978;28;20041;-74
2023/05/28 01:54:20;;;;;;;15.75;5.40;;;;;;;11.06;100.00;101589.94;5024952;28;20056;-73
2023/05/28 01:56:46;;;;;;;20.17;6.13;;;;;;;11.02;100.00;101580.81;5019910;28;20050;-73
2023/05/28 01:59:13;;;;;;;15.27;5.70;;;;;;;11.01;100.00;101584.75;5023651;28;20137;-74
2023/05/28 02:01:39;;;;;;;15.98;5.90;;;;;;;11.00;100.00;101577.63;5011910;28;20504;-74
2023/05/28 02:04:06;;;;;;;18.80;6.80;;;;;;;10.97;100.00;101574.84;5023079;28;20192;-74
2023/05/28 02:06:33;;;;;;;14.48;5.65;;;;;;;10.85;100.00;101570.50;5018615;28;20057;-74
2023/05/28 02:09:00;;;;;;;16.42;6.40;;;;;;;10.80;100.00;101568.09;5014103;28;20041;-74
2023/05/28 02:11:27;;;;;;;17.40;6.18;;;;;;;10.81;100.00;101571.69;5019989;28;20057;-74
2023/05/28 02:13:54;;;;;;;16.50;6.13;;;;;;;10.82;100.00;101573.25;5009498;28;20060;-73
2023/05/28 02:16:22;;;;;;;14.77;5.55;;;;;;;10.75;100.00;101574.06;5011399;28;20415;-74
2023/05/28 02:18:52;;;;;;;19.15;6.10;;;;;;;10.70;100.00;101568.91;5017709;28;20165;-77
2023/05/28 02:21:19;;;;;;;20.92;5.82;;;;;;;10.66;100.00;101570.06;5022997;28;20060;-74
2023/05/28 02:23:48;;;;;;;18.25;6.35;;;;;;;10.65;100.00;101574.06;5029357;28;20081;-73
2023/05/28 02:26:15;;;;;;;17.67;6.07;;;;;;;10.60;100.00;101569.69;5025868;28;20053;-76
2023/05/28 02:28:45;;;;;;;15.93;6.20;;;;;;;10.56;100.00;101563.34;5026226;28;20777;-74
2023/05/28 02:31:12;;;;;;;17.15;6.05;;;;;;;10.52;100.00;101576.44;5021890;28;20697;-74
2023/05/28 02:33:41;;;;;;;16.33;6.47;;;;;;;10.47;100.00;101579.63;5019081;28;20136;-75
2023/05/28 02:36:11;;;;;;;15.65;6.03;;;;;;;10.48;100.00;101574.84;5024882;28;20092;-75
2023/05/28 02:38:38;;;;;;;20.02;5.85;;;;;;;10.45;100.00;101578.41;5024300;28;20438;-75
2023/05/28 02:41:05;;;;;;;16.58;5.75;;;;;;;10.36;100.00;101567.69;5022222;28;20542;-74
2023/05/28 02:43:31;;;;;;;20.52;7.03;;;;;;;10.31;100.00;101570.88;5014630;28;20049;-74
2023/05/28 02:45:58;;;;;;;17.65;6.13;;;;;;;10.27;100.00;101572.06;5016632;28;20096;-74
2023/05/28 02:48:25;;;;;;;15.30;6.57;;;;;;;10.21;100.00;101571.66;5025010;28;20055;-74
2023/05/28 02:50:52;;;;;;;18.23;6.45;;;;;;;10.17;100.00;101573.63;5028509;28;20053;-74
2023/05/28 02:53:23;;;;;;;14.27;5.90;;;;;;;10.20;100.00;101575.63;5029025;28;20057;-74
2023/05/28 02:55:50;;;;;;;15.82;6.07;;;;;;;10.21;100.00;101582.78;5015403;28;20053;-75
2023/05/28 02:58:17;;;;;;;16.80;5.55;;;;;;;10.17;100.00;101576.41;5028183;28;20049;-72
2023/05/28 03:00:44;;;;;;;16.10;6.32;;;;;;;10.17;100.00;101581.16;5019219;28;20500;-73
2023/05/28 03:03:10;;;;;;;20.42;6.15;;;;;;;10.07;100.00;101588.31;5016917;28;20050;-74
2023/05/28 03:05:37;;;;;;;15.70;6.30;;;;;;;10.02;100.00;101588.66;5017522;28;20072;-74
2023/05/28 03:08:04;;;;;;;15.65;6.70;;;;;;;9.98;100.00;101593.41;5028876;28;20049;-74
2023/05/28 03:10:30;;;;;;;18.60;7.03;;;;;;;9.96;100.00;101590.19;5027254;28;20050;-73
2023/05/28 03:12:57;;;;;;;16.88;6.68;;;;;;;9.93;100.00;101593.78;5008648;28;20066;-75
2023/05/28 03:15:26;;;;;;;19.13;6.88;;;;;;;9.91;100.00;101591.41;5006863;28;20169;-74
2023/05/28 03:17:53;;;;;;;20.48;6.55;;;;;;;9.91;100.00;101585.03;5011719;28;20049;-70
2023/05/28 03:20:20;;;;;;;19.73;6.72;;;;;;;9.85;100.00;101587.41;5013619;28;20077;-73
2023/05/28 03:22:49;;;;;;;17.35;5.78;;;;;;;9.87;100.00;101598.13;5017428;28;20127;-74
2023/05/28 03:25:15;;;;;;;19.58;6.85;;;;;;;9.87;100.00;101585.00;5017727;28;20103;-73
2023/05/28 03:27:42;;;;;;;19.40;6.95;;;;;;;9.84;100.00;101585.81;5027718;28;20053;-74
2023/05/28 03:30:09;;;;;;;18.70;6.50;;;;;;;9.85;100.00;101592.16;5020795;28;20476;-74
2023/05/28 03:32:36;;;;;;;19.50;6.75;;;;;;;9.82;100.00;101587.38;5017555;28;20057;-74
2023/05/28 03:35:03;;;;;;;19.70;7.82;;;;;;;9.80;100.00;101587.00;5001682;28;20049;-73
2023/05/28 03:37:30;;;;;;;18.20;6.72;;;;;;;9.77;100.00;101590.56;5015954;28;20474;-74
2023/05/28 03:39:56;;;;;;;19.63;6.82;;;;;;;9.73;100.00;101582.19;5024683;28;20084;-73
2023/05/28 03:42:23;;;;;;;15.88;6.10;;;;;;;9.69;100.00;101584.16;5022868;28;20125;-74
2023/05/28 03:44:49;;;;;;;19.55;7.25;;;;;;;9.70;100.00;101591.31;5027820;28;20073;-73
2023/05/28 03:47:16;;;;;;;17.75;7.53;;;;;;;9.71;100.00;101586.56;5021974;28;20531;-73
2023/05/28 03:49:42;;;;;;;20.50;7.22;;;;;;;9.73;100.00;101589.75;5021591;28;20733;-72
2023/05/28 03:52:10;;;;;;;18.30;6.50;;;;;;;9.74;100.00;101596.88;5011813;28;20565;-75
2023/05/28 03:54:36;;;;;;;21.88;7.18;;;;;;;9.69;100.00;101586.16;5017427;28;20061;-74
2023/05/28 03:57:03;;;;;;;18.30;7.32;;;;;;;9.67;100.00;101588.53;5019473;28;20053;-72
2023/05/28 03:59:30;;;;;;;22.85;7.60;;;;;;;9.65;100.00;101590.88;5013340;28;20113;-74
2023/05/28 04:01:56;;;;;;;18.05;7.22;;;;;;;9.64;100.00;101592.06;5016389;28;20085;-74
2023/05/28 04:04:23;;;;;;;17.88;7.00;;;;;;;9.58;100.00;101593.63;5015072;28;20112;-72
2023/05/28 04:06:49;;;;;;;21.98;8.00;;;;;;;9.65;100.00;101594.47;5016715;28;20071;-74
2023/05/28 04:09:16;;;;;;;19.00;7.03;;;;;;;9.69;100.00;101594.50;5003265;28;20094;-74
2023/05/28 04:11:42;;;;;;;18.50;6.75;;;;;;;9.69;100.00;101584.16;4998466;28;20058;-72
2023/05/28 04:14:09;;;;;;;18.55;7.57;;;;;;;9.70;100.00;101596.06;5005988;28;20109;-73
2023/05/28 04:16:35;;;;;;;17.02;7.78;;;;;;;9.72;100.00;101593.69;5024977;28;20049;-74
2023/05/28 04:19:02;;;;;;;19.08;7.45;;;;;;;9.74;100.00;101589.34;5018408;28;20057;-74
2023/05/28 04:21:29;;;;;;;17.42;7.72;;;;;;;9.73;100.00;101592.53;5017415;28;20112;-74
2023/05/28 04:23:56;;;;;;;18.27;7.18;;;;;;;9.79;100.00;101590.94;5007963;28;20046;-73
2023/05/28 04:26:23;;;;;;;19.00;7.30;;;;;;;9.78;100.00;101587.38;5003845;28;20073;-74
2023/05/28 04:28:50;;;;;;;19.85;7.45;;;;;;;9.82;100.00;101595.72;5025863;28;20052;-74
2023/05/28 04:31:17;;;;;;;20.48;7.22;;;;;;;9.82;100.00;101598.50;5026074;28;20419;-75
2023/05/28 04:33:46;;;;;;;17.88;7.20;;;;;;;9.87;100.00;101600.91;5019300;28;20092;-74
2023/05/28 04:36:16;;;;;;;25.90;7.53;;;;;;;9.92;100.00;101598.53;5009769;28;20133;-71
2023/05/28 04:38:42;;;;;;;20.15;6.80;;;;;;;9.96;100.00;101604.91;5007508;28;20139;-74
2023/05/28 04:41:13;;;;;;;21.88;7.80;;;;;;;9.99;100.00;101603.34;5007747;28;20516;-75
2023/05/28 04:43:41;;;;;;;19.33;8.00;;;;;;;10.06;100.00;101613.69;5005878;28;20140;-74
2023/05/28 04:46:11;;;;;;;16.60;7.00;;;;;;;10.10;100.00;101612.53;5016829;28;20042;-74
2023/05/28 04:48:38;;;;;;;18.77;8.48;;;;;;;10.14;100.00;101618.88;5009853;28;20053;-77
2023/05/28 04:51:07;;;;;;;27.42;10.07;;;;;;;10.19;100.00;101617.72;5016340;28;20054;-75
2023/05/28 04:53:34;;;;;;;19.52;7.97;;;;;;;10.20;100.00;101608.97;5023898;28;20687;-74
2023/05/28 04:56:01;;;;;;;18.08;7.28;;;;;;;10.28;100.00;101609.78;5014507;28;20041;-74
2023/05/28 04:58:27;;;;;;;18.50;8.10;;;;;;;10.35;100.00;101610.59;5008157;28;20072;-74
2023/05/28 05:00:55;;;;;;;21.05;7.72;;;;;;;10.42;100.00;101612.56;5003896;28;20397;-74
2023/05/28 05:03:22;;;;;;;18.83;7.57;;;;;;;10.52;100.00;101615.38;5020668;28;20065;-74
2023/05/28 05:05:49;;;;;;;21.33;7.40;;;;;;;10.60;100.00;101613.41;5027416;28;20053;-75
2023/05/28 05:08:16;;;;;;;19.52;7.38;;;;;;;10.71;100.00;101616.97;5010209;28;20108;-74
2023/05/28 05:10:43;;;;;;;19.15;8.38;;;;;;;10.80;100.00;101614.59;5001845;28;20077;-76
2023/05/28 05:13:09;;;;;;;20.02;8.25;;;;;;;10.89;100.00;101607.44;5016670;28;20065;-74
2023/05/28 05:15:36;;;;;;;23.85;7.78;;;;;;;10.99;100.00;101616.97;5009294;28;20137;-75
2023/05/28 05:18:02;;;;;;;24.85;8.88;;;;;;;11.11;100.00;101619.34;5008417;28;20061;-74
2023/05/28 05:20:29;;;;;;;21.63;7.47;;;;;;;11.21;100.00;101629.69;5005735;28;20417;-77
2023/05/28 05:22:56;;;;;;;19.88;7.65;;;;;;;11.28;100.00;101632.47;5013573;28;20061;-73
2023/05/28 05:25:23;;;;;;;20.75;8.15;;;;;;;11.39;100.00;101631.28;5012541;28;20038;-74
2023/05/28 05:27:50;;;;;;;18.48;7.82;;;;;;;11.49;100.00;101629.66;5009252;28;20046;-75
2023/05/28 05:30:17;;;;;;;22.95;7.65;;;;;;;11.61;100.00;101635.56;5014380;28;20069;-74
2023/05/28 05:32:44;;;;;;;20.35;8.40;;;;;;;11.69;100.00;101631.59;5018305;28;20054;-74
2023/05/28 05:35:11;;;;;;;21.95;7.95;;;;;;;11.77;100.00;101635.13;5009916;28;20488;-75
2023/05/28 05:37:38;;;;;;;21.85;7.60;;;;;;;11.87;100.00;101640.66;5009999;28;20050;-77
2023/05/28 05:40:05;;;;;;;18.60;7.85;;;;;;;11.96;100.00;101635.44;5008959;28;20053;-74
2023/05/28 05:42:32;;;;;;;19.27;7.72;;;;;;;12.04;100.00;101630.63;5017750;28;20049;-75
2023/05/28 05:44:58;;;;;;;21.08;7.93;;;;;;;12.12;100.00;101635.75;5028205;28;20049;-75
2023/05/28 05:47:25;;;;;;;21.58;7.53;;;;;;;12.18;100.00;101631.34;5006335;28;20136;-75
2023/05/28 05:49:52;;;;;;;18.20;8.02;;;;;;;12.29;100.00;101639.66;5020836;28;20065;-75
2023/05/28 05:52:18;;;;;;;23.67;8.85;;;;;;;12.38;100.00;101640.81;5020396;28;20778;-75
2023/05/28 05:54:45;;;;;;;20.92;8.98;;;;;;;12.43;100.00;101629.22;5016840;28;20131;-75
2023/05/28 05:57:11;;;;;;;22.67;8.65;;;;;;;12.42;100.00;101622.06;5015044;28;20073;-74
2023/05/28 05:59:38;;;;;;;19.92;8.90;;;;;;;12.57;100.00;101631.13;5007141;28;20504;-76
2023/05/28 06:02:04;;;;;;;21.42;8.52;;;;;;;12.65;100.00;101629.88;5020868;28;20048;-72
2023/05/28 06:04:33;;;;;;;21.60;7.85;;;;;;;12.74;100.00;101640.56;5029435;28;20167;-72
2023/05/28 06:07:04;;;;;;;21.67;7.85;;;;;;;12.80;100.00;101630.56;5019067;28;20527;-75
2023/05/28 06:09:31;;;;;;;19.13;7.78;;;;;;;12.88;100.00;101632.88;5011188;28;20050;-73
2023/05/28 06:11:59;;;;;;;19.20;7.30;;;;;;;12.97;100.00;101638.00;5011328;28;20068;-70
2023/05/28 06:14:27;;;;;;;23.83;7.45;;;;;;;13.05;100.00;101631.13;5013584;28;20100;-71
2023/05/28 06:16:53;;;;;;;19.42;7.55;;;;;;;13.11;100.00;101623.91;5000993;28;20157;-72
2023/05/28 06:19:21;;;;;;;23.52;7.60;;;;;;;13.16;100.00;101629.84;5015723;28;20415;-72
2023/05/28 06:21:47;;;;;;;21.45;7.47;;;;;;;13.25;100.00;101632.16;5016546;28;20058;-74
2023/05/28 06:24:14;;;;;;;19.25;7.53;;;;;;;13.33;100.00;101633.69;5003515;28;20061;-73
2023/05/28 06:26:40;;;;;;;20.27;7.18;;;;;;;13.46;100.00;101645.91;5011933;28;20050;-72
2023/05/28 06:29:09;;;;;;;23.35;8.10;;;;;;;13.54;100.00;101644.66;5016925;28;20474;-73
2023/05/28 06:31:36;;;;;;;19.95;6.93;;;;;;;13.63;100.00;101648.53;5021857;28;20092;-72
2023/05/28 06:34:03;;;;;;;17.48;6.88;;;;;;;13.68;100.00;101644.50;5024063;28;20086;-73
2023/05/28 06:36:30;;;;;;;18.50;6.85;;;;;;;13.76;100.00;101652.38;5016916;28;20050;-72
2023/05/28 06:38:56;;;;;;;21.42;6.88;;;;;;;13.83;100.00;101648.69;5028149;28;20056;-72
2023/05/28 06:41:23;;;;;;;17.55;7.18;;;;;;;13.92;100.00;101643.41;5009485;28;20100;-72
2023/05/28 06:43:49;;;;;;;15.60;6.28;;;;;;;14.00;100.00;101637.31;5018755;28;20076;-71
2023/05/28 06:46:16;;;;;;;18.83;6.65;;;;;;;14.11;100.00;101642.78;5006760;28;20042;-72
2023/05/28 06:48:43;;;;;;;16.95;6.20;;;;;;;14.19;100.00;101644.25;5017935;28;20447;-71
2023/05/28 06:51:10;;;;;;;18.33;7.18;;;;;;;14.29;100.00;101643.31;5008395;28;20080;-71
2023/05/28 06:53:38;;;;;;;20.65;7.80;;;;;;;14.39;100.00;101639.56;5025656;28;20107;-71
2023/05/28 06:56:06;;;;;;;21.70;7.03;;;;;;;14.45;100.00;101643.53;5019413;28;20049;-72
2023/05/28 06:58:32;;;;;;;19.40;6.70;;;;;;;14.54;100.00;101644.56;4999932;28;20520;-74
2023/05/28 07:01:01;;;;;;;19.90;6.78;;;;;;;14.63;100.00;101647.63;5019650;28;20079;-71
2023/05/28 07:03:28;;;;;;;14.98;6.28;;;;;;;14.74;100.00;101645.47;5020413;28;20056;-71
2023/05/28 07:05:54;;;;;;;16.88;6.28;;;;;;;14.85;100.00;101642.47;5000218;28;20499;-70
2023/05/28 07:08:22;;;;;;;14.80;5.97;;;;;;;14.98;100.00;101645.50;5002432;28;20046;-70
2023/05/28 07:10:48;;;;;;;15.35;5.18;;;;;;;15.06;100.00;101650.53;5009034;28;20129;-71
2023/05/28 07:13:15;;;;;;;17.80;5.97;;;;;;;15.17;100.00;101653.94;5014341;28;20499;-70
2023/05/28 07:15:41;;;;;;;18.15;5.45;;;;;;;15.28;100.00;101657.34;5009209;28;20076;-70
2023/05/28 07:18:08;;;;;;;16.30;5.25;;;;;;;15.36;100.00;101653.22;5008810;28;20480;-72
2023/05/28 07:20:34;;;;;;;14.35;4.75;;;;;;;15.48;100.00;101658.22;5004987;28;20137;-71
2023/05/28 07:23:01;;;;;;;17.50;5.30;;;;;;;15.50;100.00;101654.97;5015657;28;20054;-71
2023/05/28 07:25:27;;;;;;;14.02;4.78;;;;;;;15.62;100.00;101666.34;5012198;28;20112;-72
2023/05/28 07:27:54;;;;;;;17.52;5.13;;;;;;;15.67;100.00;101657.47;5016435;28;20112;-70
2023/05/28 07:30:21;;;;;;;20.83;5.70;;;;;;;15.76;100.00;101657.66;4998505;28;20050;-72
2023/05/28 07:32:47;;;;;;;14.38;4.85;;;;;;;15.91;100.00;101656.16;5001537;28;20053;-72
2023/05/28 07:35:14;;;;;;;21.10;6.47;;;;;;;16.03;100.00;101658.31;5007881;28;20049;-72
2023/05/28 07:37:41;;;;;;;15.02;5.20;;;;;;;16.16;100.00;101666.84;5006331;28;20427;-72
2023/05/28 07:40:08;;;;;;;15.05;4.90;;;;;;;16.26;100.00;101660.25;5001004;28;20045;-71
2023/05/28 07:42:35;;;;;;;19.58;5.38;;;;;;;16.38;100.00;101659.59;5004692;28;20096;-70
2023/05/28 07:45:02;;;;;;;15.35;4.55;;;;;;;16.47;100.00;101657.75;5007388;28;20053;-70
2023/05/28 07:47:28;;;;;;;18.73;4.80;;;;;;;16.58;100.00;101661.09;5015081;28;20056;-71
2023/05/28 07:49:55;;;;;;;13.57;4.93;;;;;;;16.66;100.00;101661.75;5008175;28;20622;-72
2023/05/28 07:52:21;;;;;;;12.82;4.30;;;;;;;16.69;100.00;101660.88;5019246;28;20073;-75
2023/05/28 07:54:48;;;;;;;12.65;4.43;;;;;;;16.74;100.00;101660.34;5007241;28;20053;-67
2023/05/28 07:57:14;;;;;;;16.88;5.28;;;;;;;16.77;100.00;101654.66;5011390;28;20415;-70
2023/05/28 07:59:42;;;;;;;14.82;5.00;;;;;;;16.85;100.00;101656.06;5009785;28;20471;-72
2023/05/28 08:02:08;;;;;;;13.18;4.72;;;;;;;16.89;100.00;101655.97;5020907;28;20045;-72
2023/05/28 08:04:37;;;;;;;18.38;5.43;;;;;;;16.96;100.00;101650.97;5007446;28;20049;-71
2023/05/28 08:07:04;;;;;;;17.08;4.82;;;;;;;17.07;100.00;101656.31;5007668;28;20052;-71
2023/05/28 08:09:32;;;;;;;13.15;4.72;;;;;;;17.21;100.00;101656.78;5022202;28;20064;-71
2023/05/28 08:12:00;;;;;;;16.10;5.95;;;;;;;17.34;100.00;101654.03;5010482;28;20049;-70
2023/05/28 08:14:26;;;;;;;18.23;5.85;;;;;;;17.43;100.00;101652.16;5020383;28;20045;-71
2023/05/28 08:16:53;;;;;;;14.27;4.65;;;;;;;17.51;100.00;101654.81;5006051;28;20100;-72
2023/05/28 08:19:20;;;;;;;15.35;5.03;;;;;;;17.57;100.00;101650.19;5018570;28;20100;-72
2023/05/28 08:21:47;;;;;;;14.15;4.82;;;;;;;17.69;100.00;101649.47;5021668;28;20046;-72
2023/05/28 08:24:13;;;;;;;16.80;5.03;;;;;;;17.78;100.00;101644.00;5021741;28;20053;-70
2023/05/28 08:26:40;;;;;;;15.25;4.75;;;;;;;17.87;100.00;101647.75;5008158;28;20042;-73
2023/05/28 08:29:06;;;;;;;10.27;4.00;;;;;;;17.95;100.00;101640.69;5013196;28;20078;-72
2023/05/28 08:31:33;;;;;;;16.45;4.40;;;;;;;18.10;100.00;101643.88;5009103;28;20104;-71
2023/05/28 08:34:00;;;;;;;15.32;4.15;;;;;;;18.25;100.00;101636.59;5022680;28;20073;-71
2023/05/28 08:36:26;;;;;;;13.38;4.50;;;;;;;18.32;100.00;101633.56;5023623;28;20073;-72
2023/05/28 08:38:53;;;;;;;14.82;4.28;;;;;;;18.45;100.00;101625.91;5021641;28;20129;-70
2023/05/28 08:41:21;;;;;;;13.55;4.43;;;;;;;18.58;100.00;101624.69;5013957;28;20081;-71
2023/05/28 08:43:50;;;;;;;15.63;4.28;;;;;;;18.73;100.00;101625.81;5011010;28;20072;-71
2023/05/28 08:46:18;;;;;;;15.68;4.45;;;;;;;18.87;100.00;101625.34;5014034;28;20041;-72
2023/05/28 08:48:45;;;;;;;12.80;4.63;;;;;;;19.02;100.00;101629.28;5018848;28;20061;-71
2023/05/28 08:51:12;;;;;;;11.00;4.40;;;;;;;19.15;100.00;101617.97;5022637;28;20087;-74
2023/05/28 08:53:42;;;;;;;12.70;3.58;;;;;;;19.22;100.00;101620.53;5015536;28;20091;-76
2023/05/28 08:56:09;;;;;;;9.57;3.80;;;;;;;19.32;100.00;101620.19;5021871;28;20073;-75
2023/05/28 08:58:38;;;;;;;13.82;3.90;;;;;;;19.46;100.00;101616.06;5027885;28;20049;-70
2023/05/28 09:01:08;;;;;;;15.93;4.70;;;;;;;19.61;100.00;101617.13;5021617;28;20132;-72
2023/05/28 09:03:37;;;;;;;12.73;3.95;;;;;;;19.73;100.00;101619.13;5018928;28;20519;-71
2023/05/28 09:06:04;;;;;;;15.45;4.55;;;;;;;19.84;100.00;101608.22;5019574;28;20123;-73
2023/05/28 09:08:31;;;;;;;13.95;3.80;;;;;;;19.90;100.00;101608.41;5025317;28;20077;-73
2023/05/28 09:11:09;;;;;;;11.70;3.78;;;;;;;20.01;100.00;101601.13;5018445;28;20083;-70
2023/05/28 09:13:43;;;;;;;10.32;3.75;;;;;;;20.08;100.00;101603.66;5018991;28;20460;-69
2023/05/28 09:16:10;;;;;;;12.82;4.47;;;;;;;20.06;100.00;101603.34;5018531;28;20133;-70
2023/05/28 09:18:40;;;;;;;13.75;3.95;;;;;;;20.09;100.00;101598.81;5021405;28;20049;-70
2023/05/28 09:21:11;;;;;;;11.25;3.80;;;;;;;20.24;100.00;101602.66;5021975;28;20060;-71
2023/05/28 09:23:44;;;;;;;15.10;4.35;;;;;;;20.31;100.00;101602.38;5013773;28;20054;-72
2023/05/28 09:26:11;;;;;;;12.55;4.00;;;;;;;20.42;100.00;101606.38;5018432;28;20042;-72
2023/05/28 09:28:42;;;;;;;11.63;3.92;;;;;;;20.56;100.00;101605.03;5013657;28;21397;-70
2023/05/28 09:31:10;;;;;;;18.98;4.03;;;;;;;20.61;100.00;101602.38;5009821;28;20103;-73
2023/05/28 09:33:44;;;;;;;14.20;4.25;;;;;;;20.61;100.00;101598.75;5008581;28;20057;-72
2023/05/28 09:36:11;;;;;;;11.95;4.00;;;;;;;20.66;100.00;101598.91;5008715;28;20108;-70
2023/05/28 09:38:39;;;;;;;13.40;3.75;;;;;;;20.74;100.00;101596.59;5022456;28;20535;-71
2023/05/28 09:41:25;;;;;;;16.08;4.15;;;;;;;20.78;100.00;101606.50;5021073;28;20491;-71
2023/05/28 09:44:00;;;;;;;13.38;4.05;;;;;;;20.80;100.00;101601.19;5017258;28;20050;-72
2023/05/28 09:46:32;;;;;;;16.05;3.75;;;;;;;20.87;100.00;101592.41;5016401;28;20050;-74
2023/05/28 09:48:59;;;;;;;19.95;4.30;;;;;;;21.01;100.00;101588.22;5016251;28;20073;-72
2023/05/28 09:51:29;;;;;;;11.65;3.85;;;;;;;21.15;100.00;101590.41;5008115;28;20049;-73
2023/05/28 09:54:04;;;;;;;14.60;4.18;;;;;;;21.19;99.37;101580.53;5004845;28;20049;-71
2023/05/28 09:56:32;;;;;;;12.73;3.70;;;;;;;21.34;99.67;101586.34;5013053;28;20053;-72
2023/05/28 09:59:06;;;;;;;11.10;3.90;;;;;;;21.35;98.90;101583.06;5019235;28;20049;-72
2023/05/28 10:01:47;;;;;;;11.13;3.78;;;;;;;21.35;99.79;101579.44;5005402;28;20085;-73
2023/05/28 10:04:19;;;;;;;14.30;4.20;;;;;;;21.45;96.11;101589.50;5013915;28;20053;-76
2023/05/28 10:06:46;;;;;;;13.23;3.85;;;;;;;21.46;96.39;101582.56;5010895;28;20074;-74
2023/05/28 10:09:15;;;;;;;14.80;4.53;;;;;;;21.48;97.33;101578.03;5001266;28;20050;-75
2023/05/28 10:11:48;;;;;;;12.63;4.40;;;;;;;21.47;93.65;101576.44;5005483;28;20104;-74
2023/05/28 10:14:15;;;;;;;10.88;3.80;;;;;;;21.40;95.34;101576.00;5010794;28;20084;-73
2023/05/28 10:16:42;;;;;;;14.98;4.15;;;;;;;21.50;96.95;101575.50;5008362;28;20050;-73
2023/05/28 10:19:09;;;;;;;10.55;3.85;;;;;;;21.65;97.63;101587.00;5013825;28;20136;-74
2023/05/28 10:21:36;;;;;;;15.68;4.22;;;;;;;21.77;95.05;101583.97;5006811;28;20108;-71
2023/05/28 10:24:04;;;;;;;11.85;3.92;;;;;;;21.79;93.26;101580.69;5008434;28;20054;-73
2023/05/28 10:26:31;;;;;;;12.90;3.88;;;;;;;21.88;92.52;101586.34;5016736;28;20053;-72
2023/05/28 10:28:57;;;;;;;14.75;3.85;;;;;;;22.00;92.38;101585.34;5005070;28;20053;-72
2023/05/28 10:31:25;;;;;;;14.93;4.32;;;;;;;22.09;91.00;101577.63;5004351;28;20054;-71
2023/05/28 10:33:52;;;;;;;12.93;4.38;;;;;;;22.16;91.05;101582.16;5011166;28;20764;-71
2023/05/28 10:36:18;;;;;;;15.23;4.13;;;;;;;22.29;88.58;101587.63;5019855;28;20470;-71
2023/05/28 10:39:06;;;;;;;13.10;3.90;;;;;;;22.43;87.47;101584.13;5011847;28;20084;-72
2023/05/28 10:41:34;;;;;;;13.02;3.78;;;;;;;22.56;88.49;101581.84;5016816;28;20058;-73
2023/05/28 10:44:10;;;;;;;13.68;3.75;;;;;;;22.77;88.64;101575.91;5008661;28;20057;-72
2023/05/28 10:46:38;;;;;;;10.40;3.83;;;;;;;22.96;87.92;101582.25;5002253;28;20225;-72
2023/05/28 10:49:07;;;;;;;10.23;3.83;;;;;;;23.06;86.64;101587.41;5001924;28;20145;-71
2023/05/28 10:51:56;;;;;;;11.63;3.88;;;;;;;22.98;85.40;101576.94;4998712;28;20074;-73
2023/05/28 10:54:29;;;;;;;8.52;3.80;;;;;;;22.95;86.45;101580.69;5000130;28;20096;-73
2023/05/28 10:57:12;;;;;;;12.60;4.00;;;;;;;22.96;86.74;101576.59;5001799;28;20115;-73
2023/05/28 10:59:58;;;;;;;12.85;3.78;;;;;;;23.05;85.47;101577.31;5009677;28;20141;-73
2023/05/28 11:02:34;;;;;;;13.23;4.15;;;;;;;23.18;87.96;101572.19;5002000;28;20149;-71
2023/05/28 11:05:04;;;;;;;11.25;4.07;;;;;;;23.26;86.35;101575.44;5005849;28;20532;-71
2023/05/28 11:07:39;;;;;;;12.38;3.85;;;;;;;23.36;86.43;101576.94;5006677;28;20054;-71
2023/05/28 11:10:08;;;;;;;11.27;3.83;;;;;;;23.32;82.11;101565.75;5004268;28;20072;-74
2023/05/28 11:12:39;;;;;;;13.45;3.97;;;;;;;23.23;84.02;101568.69;5014739;28;20353;-74
2023/05/28 11:15:09;;;;;;;10.30;3.53;;;;;;;23.12;84.11;101570.50;5006495;28;20073;-73